createdAt,value
2018-10-18T00:01:57.365Z,33.70
2018-10-18T00:04:00.746Z,31.90
2018-10-18T00:06:03.999Z,29.80
2018-10-18T00:08:07.351Z,29.97
2018-10-18T00:10:11.054Z,29.27
2018-10-18T00:12:14.292Z,30.60
2018-10-18T00:14:17.691Z,32.50
2018-10-18T00:16:21.403Z,30.40
2018-10-18T00:18:24.853Z,35.03
2018-10-18T00:20:28.032Z,32.50
2018-10-18T00:22:31.341Z,28.47
2018-10-18T00:24:34.774Z,30.10
2018-10-18T00:26:38.310Z,22.70
2018-10-18T00:28:41.512Z,27.20
2018-10-18T00:30:44.783Z,21.77
2018-10-18T00:32:47.975Z,29.77
2018-10-18T00:34:51.223Z,33.10
2018-10-18T00:36:54.674Z,31.30
2018-10-18T00:38:57.876Z,17.77
2018-10-18T00:41:01.401Z,19.33
2018-10-18T00:43:05.168Z,30.50
2018-10-18T00:45:09.292Z,30.13
2018-10-18T00:47:12.672Z,27.23
2018-10-18T00:49:15.877Z,29.70
2018-10-18T00:51:19.048Z,29.27
2018-10-18T00:53:22.276Z,29.73
2018-10-18T00:55:25.848Z,28.77
2018-10-18T00:57:29.376Z,28.77
2018-10-18T00:59:32.595Z,28.30
2018-10-18T01:01:35.841Z,28.50
2018-10-18T01:03:39.019Z,28.33
2018-10-18T01:05:42.208Z,29.87
2018-10-18T01:07:45.861Z,27.27
2018-10-18T01:09:49.123Z,27.07
2018-10-18T01:11:52.303Z,25.97
2018-10-18T01:13:56.024Z,26.10
2018-10-18T01:15:59.364Z,25.37
2018-10-18T01:18:02.586Z,25.50
2018-10-18T01:20:06.799Z,26.00
2018-10-18T01:22:10.472Z,26.43
2018-10-18T01:24:13.822Z,24.00
2018-10-18T01:26:17.371Z,25.20
2018-10-18T01:28:20.724Z,27.40
2018-10-18T01:30:23.916Z,26.00
2018-10-18T01:32:27.488Z,26.00
2018-10-18T01:34:30.872Z,24.87
2018-10-18T01:36:34.075Z,26.07
2018-10-18T01:38:37.483Z,27.70
2018-10-18T01:40:40.675Z,21.17
2018-10-18T01:42:43.937Z,25.90
2018-10-18T01:44:47.317Z,25.87
2018-10-18T01:46:50.854Z,25.20
2018-10-18T01:48:54.033Z,25.10
2018-10-18T01:50:57.385Z,24.10
2018-10-18T01:53:00.575Z,25.07
2018-10-18T01:55:04.617Z,24.13
2018-10-18T01:57:07.848Z,21.47
2018-10-18T01:59:11.057Z,23.07
2018-10-18T02:01:15.425Z,24.97
2018-10-18T02:03:19.072Z,23.17
2018-10-18T02:05:22.596Z,25.57
2018-10-18T02:07:25.784Z,27.00
2018-10-18T02:09:28.969Z,24.63
2018-10-18T02:11:32.145Z,25.57
2018-10-18T02:13:35.701Z,25.37
2018-10-18T02:15:39.374Z,23.00
2018-10-18T02:17:42.596Z,19.70
2018-10-18T02:19:46.153Z,25.53
2018-10-18T02:21:49.336Z,26.73
2018-10-18T02:23:52.616Z,23.20
2018-10-18T02:25:55.978Z,23.47
2018-10-18T02:27:59.164Z,25.53
2018-10-18T02:30:02.839Z,24.33
2018-10-18T02:32:07.102Z,25.23
2018-10-18T02:34:10.506Z,24.57
2018-10-18T02:36:13.712Z,26.67
2018-10-18T02:38:17.399Z,25.27
2018-10-18T02:40:20.772Z,24.83
2018-10-18T02:42:23.953Z,23.30
2018-10-18T02:44:27.300Z,22.30
2018-10-18T02:46:30.926Z,23.10
2018-10-18T02:48:34.109Z,24.13
2018-10-18T02:50:37.681Z,26.60
2018-10-18T02:52:41.043Z,27.00
2018-10-18T02:54:44.432Z,25.20
2018-10-18T02:56:47.816Z,25.07
2018-10-18T02:58:51.064Z,22.87
2018-10-18T03:00:54.647Z,24.73
2018-10-18T03:02:57.848Z,22.77
2018-10-18T03:05:01.051Z,24.37
2018-10-18T03:07:05.410Z,24.67
2018-10-18T03:09:10.152Z,22.90
2018-10-18T03:11:13.360Z,21.37
2018-10-18T03:13:16.896Z,21.63
2018-10-18T03:15:20.272Z,23.07
2018-10-18T03:17:23.645Z,23.10
2018-10-18T03:19:26.848Z,22.30
2018-10-18T03:21:30.041Z,22.47
2018-10-18T03:23:33.259Z,20.10
2018-10-18T03:25:36.495Z,21.30
2018-10-18T03:27:40.301Z,20.07
2018-10-18T03:29:43.470Z,13.93
2018-10-18T03:31:46.705Z,15.13
2018-10-18T03:33:50.149Z,16.40
2018-10-18T03:35:53.428Z,17.40
2018-10-18T03:37:57.098Z,17.43
2018-10-18T03:40:00.505Z,14.30
2018-10-18T03:42:03.728Z,15.27
2018-10-18T03:44:07.801Z,15.67
2018-10-18T03:46:11.004Z,17.20
2018-10-18T03:48:14.252Z,16.27
2018-10-18T03:50:17.593Z,14.63
2018-10-18T03:52:21.071Z,15.60
2018-10-18T03:54:24.288Z,15.63
2018-10-18T03:56:27.805Z,14.40
2018-10-18T03:58:31.044Z,15.93
2018-10-18T04:00:34.232Z,16.77
2018-10-18T04:02:38.069Z,15.53
2018-10-18T04:04:41.318Z,14.93
2018-10-18T04:06:44.790Z,16.30
2018-10-18T04:08:47.959Z,14.77
2018-10-18T04:10:51.187Z,15.20
2018-10-18T04:12:54.547Z,12.73
2018-10-18T04:14:57.949Z,16.97
2018-10-18T04:17:01.179Z,15.73
2018-10-18T04:19:05.463Z,16.17
2018-10-18T04:21:08.740Z,15.80
2018-10-18T04:23:12.033Z,15.73
2018-10-18T04:25:15.634Z,15.47
2018-10-18T04:27:19.180Z,16.70
2018-10-18T04:29:22.379Z,16.60
2018-10-18T04:31:26.216Z,16.30
2018-10-18T04:33:30.072Z,16.30
2018-10-18T04:35:33.286Z,15.20
2018-10-18T04:37:37.011Z,19.73
2018-10-18T04:39:40.368Z,16.30
2018-10-18T04:41:43.589Z,18.60
2018-10-18T04:43:47.017Z,16.30
2018-10-18T04:45:50.324Z,17.00
2018-10-18T04:47:53.576Z,18.63
2018-10-18T04:49:57.055Z,20.57
2018-10-18T04:52:00.592Z,18.63
2018-10-18T04:54:03.848Z,17.50
2018-10-18T04:56:07.288Z,17.10
2018-10-18T04:58:10.484Z,19.00
2018-10-18T05:00:13.673Z,19.10
2018-10-18T05:02:16.940Z,17.90
2018-10-18T05:04:20.481Z,19.57
2018-10-18T05:06:24.490Z,20.77
2018-10-18T05:08:28.068Z,21.10
2018-10-18T05:10:31.309Z,22.30
2018-10-18T05:12:34.551Z,23.37
2018-10-18T05:14:37.953Z,24.33
2018-10-18T05:16:41.351Z,23.37
2018-10-18T05:18:45.210Z,22.57
2018-10-18T05:20:48.765Z,21.60
2018-10-18T05:22:51.974Z,23.50
2018-10-18T05:24:55.537Z,23.87
2018-10-18T05:26:59.271Z,24.37
2018-10-18T05:29:02.589Z,24.57
2018-10-18T05:31:06.774Z,21.60
2018-10-18T05:33:10.168Z,22.87
2018-10-18T05:35:13.737Z,23.50
2018-10-18T05:37:17.368Z,20.33
2018-10-18T05:39:20.726Z,23.33
2018-10-18T05:41:24.152Z,22.80
2018-10-18T05:43:27.577Z,20.20
2018-10-18T05:45:30.937Z,19.47
2018-10-18T05:47:34.177Z,17.33
2018-10-18T05:49:37.724Z,21.80
2018-10-18T05:51:41.356Z,20.10
2018-10-18T05:53:44.765Z,16.97
2018-10-18T05:55:48.000Z,19.40
2018-10-18T05:57:52.187Z,16.50
2018-10-18T05:59:55.592Z,20.13
2018-10-18T06:01:58.800Z,19.50
2018-10-18T06:04:02.031Z,18.70
2018-10-18T06:06:05.764Z,18.03
2018-10-18T06:08:08.988Z,13.60
2018-10-18T06:10:24.763Z,19.00
2018-10-18T06:12:28.092Z,17.30
2018-10-18T06:14:31.312Z,21.30
2018-10-18T06:16:34.812Z,18.17
2018-10-18T06:18:38.036Z,16.77
2018-10-18T06:20:41.240Z,15.80
2018-10-18T06:22:44.680Z,18.60
2018-10-18T06:24:48.062Z,16.67
2018-10-18T06:26:51.314Z,15.77
2018-10-18T06:28:54.821Z,15.93
2018-10-18T06:30:58.260Z,16.53
2018-10-18T06:33:01.852Z,14.00
2018-10-18T06:35:06.769Z,14.87
2018-10-18T06:37:10.262Z,17.00
2018-10-18T06:39:14.193Z,16.60
2018-10-18T06:41:17.591Z,16.30
2018-10-18T06:43:21.740Z,14.23
2018-10-18T06:45:25.273Z,14.07
2018-10-18T06:47:28.650Z,13.60
2018-10-18T06:49:32.314Z,13.70
2018-10-18T06:51:36.016Z,13.30
2018-10-18T06:53:39.718Z,13.53
2018-10-18T06:55:42.925Z,15.07
2018-10-18T06:57:46.312Z,12.10
2018-10-18T06:59:49.633Z,14.77
2018-10-18T07:01:53.020Z,14.67
2018-10-18T07:03:56.207Z,13.80
2018-10-18T07:05:59.635Z,14.50
2018-10-18T07:08:03.090Z,15.00
2018-10-18T07:10:06.748Z,15.73
2018-10-18T07:12:10.063Z,15.20
2018-10-18T07:14:13.903Z,16.37
2018-10-18T07:16:17.117Z,15.80
2018-10-18T07:18:20.428Z,16.33
2018-10-18T07:20:23.940Z,18.00
2018-10-18T07:22:27.458Z,18.40
2018-10-18T07:24:31.021Z,17.73
2018-10-18T07:26:34.604Z,17.20
2018-10-18T07:28:37.823Z,17.43
2018-10-18T07:30:41.384Z,15.43
2018-10-18T07:32:44.607Z,14.50
2018-10-18T07:34:47.812Z,15.13
2018-10-18T07:36:51.014Z,14.27
2018-10-18T07:38:54.815Z,16.27
2018-10-18T07:40:58.115Z,15.03
2018-10-18T07:43:01.488Z,16.47
2018-10-18T07:45:05.188Z,15.53
2018-10-18T07:47:08.749Z,14.47
2018-10-18T07:49:11.928Z,16.93
2018-10-18T07:51:15.164Z,13.80
2018-10-18T07:53:25.449Z,15.93
2018-10-18T07:55:28.830Z,14.30
2018-10-18T07:57:32.280Z,14.00
2018-10-18T07:59:35.804Z,14.77
2018-10-18T08:01:39.180Z,15.50
2018-10-18T08:03:42.629Z,15.50
2018-10-18T08:05:45.883Z,14.03
2018-10-18T08:07:49.124Z,13.60
2018-10-18T08:09:52.695Z,11.73
2018-10-18T08:11:56.064Z,11.37
2018-10-18T08:13:59.272Z,17.97
2018-10-18T08:16:02.504Z,12.30
2018-10-18T08:18:06.251Z,13.57
2018-10-18T08:20:09.976Z,13.33
2018-10-18T08:22:13.444Z,15.33
2018-10-18T08:24:16.752Z,15.03
2018-10-18T08:26:20.286Z,14.83
2018-10-18T08:28:23.708Z,12.63
2018-10-18T08:30:26.980Z,15.40
2018-10-18T08:32:30.523Z,16.40
2018-10-18T08:34:33.973Z,15.27
2018-10-18T08:36:37.224Z,14.10
2018-10-18T08:38:40.470Z,12.50
2018-10-18T08:40:43.672Z,13.40
2018-10-18T08:42:46.860Z,15.60
2018-10-18T08:44:50.105Z,13.70
2018-10-18T08:46:53.320Z,15.60
2018-10-18T08:48:56.550Z,15.57
2018-10-18T08:51:00.632Z,14.63
2018-10-18T08:53:04.231Z,14.97
2018-10-18T08:55:09.224Z,13.30
2018-10-18T08:57:12.594Z,12.87
2018-10-18T08:59:16.282Z,14.50
2018-10-18T09:01:19.565Z,14.77
2018-10-18T09:03:22.818Z,14.73
2018-10-18T09:05:26.187Z,11.67
2018-10-18T09:07:29.380Z,12.93
2018-10-18T09:09:32.831Z,15.40
2018-10-18T09:11:36.105Z,15.50
2018-10-18T09:13:39.334Z,13.47
2018-10-18T09:15:42.733Z,8.50
2018-10-18T09:17:51.172Z,14.13
2018-10-18T09:19:54.361Z,14.80
2018-10-18T09:21:57.846Z,15.37
2018-10-18T09:24:01.762Z,14.53
2018-10-18T09:26:05.354Z,16.70
2018-10-18T09:28:09.004Z,10.57
2018-10-18T09:30:14.624Z,16.77
2018-10-18T09:32:18.112Z,15.63
2018-10-18T09:34:21.368Z,16.30
2018-10-18T09:36:24.885Z,15.80
2018-10-18T09:38:28.159Z,15.90
2018-10-18T09:40:31.603Z,16.20
2018-10-18T09:42:34.879Z,14.40
2018-10-18T09:44:38.303Z,16.73
2018-10-18T09:46:41.729Z,14.80
2018-10-18T09:48:45.336Z,17.37
2018-10-18T09:50:48.601Z,15.67
2018-10-18T09:52:51.852Z,17.47
2018-10-18T09:54:55.598Z,12.90
2018-10-18T09:56:59.210Z,16.50
2018-10-18T09:59:02.980Z,16.47
2018-10-18T10:01:11.931Z,16.57
2018-10-18T10:03:16.842Z,15.10
2018-10-18T10:05:20.527Z,15.37
2018-10-18T10:07:23.831Z,16.50
2018-10-18T10:09:26.993Z,13.57
2018-10-18T10:11:30.497Z,17.20
2018-10-18T10:13:33.957Z,17.87
2018-10-18T10:15:37.408Z,15.30
2018-10-18T10:17:40.946Z,15.87
2018-10-18T10:19:44.288Z,17.13
2018-10-18T10:21:47.500Z,11.17
2018-10-18T10:23:51.077Z,9.83
2018-10-18T10:25:54.308Z,15.67
2018-10-18T10:27:58.024Z,14.03
2018-10-18T10:30:01.254Z,12.87
2018-10-18T10:32:04.964Z,14.43
2018-10-18T10:34:08.342Z,7.33
2018-10-18T10:36:11.576Z,10.70
2018-10-18T10:38:15.037Z,13.47
2018-10-18T10:40:18.335Z,7.13
2018-10-18T10:42:21.652Z,11.13
2018-10-18T10:44:24.918Z,8.07
2018-10-18T10:46:28.540Z,11.20
2018-10-18T10:48:31.924Z,10.40
2018-10-18T10:50:36.478Z,7.87
2018-10-18T10:52:39.962Z,7.10
2018-10-18T10:54:43.356Z,6.13
2018-10-18T10:56:46.748Z,6.27
2018-10-18T10:58:49.992Z,5.00
2018-10-18T11:01:11.925Z,5.33
2018-10-18T11:03:15.320Z,4.30
2018-10-18T11:05:18.556Z,5.30
2018-10-18T11:07:21.748Z,4.87
2018-10-18T11:09:24.996Z,5.73
2018-10-18T11:11:28.328Z,5.40
2018-10-18T11:13:31.504Z,5.13
2018-10-18T11:15:34.960Z,5.80
2018-10-18T11:17:38.152Z,6.63
2018-10-18T11:19:41.340Z,6.23
2018-10-18T11:21:44.646Z,4.10
2018-10-18T11:23:48.308Z,2.10
2018-10-18T11:25:51.972Z,4.20
2018-10-18T11:27:55.708Z,3.13
2018-10-18T11:29:58.907Z,3.17
2018-10-18T11:32:02.695Z,2.60
2018-10-18T11:34:06.425Z,3.10
2018-10-18T11:36:09.662Z,2.90
2018-10-18T11:38:14.109Z,2.70
2018-10-18T11:40:17.453Z,2.57
2018-10-18T11:42:20.757Z,2.77
2018-10-18T11:44:28.297Z,2.13
2018-10-18T11:46:31.825Z,2.20
2018-10-18T11:48:35.072Z,2.87
2018-10-18T11:50:38.289Z,2.87
2018-10-18T11:52:41.492Z,4.33
2018-10-18T11:54:44.714Z,3.83
2018-10-18T11:56:47.908Z,4.67
2018-10-18T11:58:51.151Z,4.63
2018-10-18T12:00:54.727Z,5.97
2018-10-18T12:02:57.900Z,5.13
2018-10-18T12:05:01.159Z,5.07
2018-10-18T12:07:05.812Z,5.00
2018-10-18T12:09:10.168Z,5.50
2018-10-18T12:11:13.582Z,6.00
2018-10-18T12:13:16.960Z,5.33
2018-10-18T12:15:20.280Z,5.30
2018-10-18T12:17:23.562Z,5.50
2018-10-18T12:19:27.206Z,6.50
2018-10-18T12:21:30.877Z,6.07
2018-10-18T12:23:34.084Z,4.50
2018-10-18T12:25:37.307Z,4.37
2018-10-18T12:27:40.972Z,4.57
2018-10-18T12:29:44.337Z,5.60
2018-10-18T12:31:47.560Z,4.93
2018-10-18T12:33:50.918Z,7.30
2018-10-18T12:35:54.124Z,4.20
2018-10-18T12:37:57.377Z,4.27
2018-10-18T12:40:01.020Z,4.27
2018-10-18T12:42:04.339Z,4.90
2018-10-18T12:44:07.687Z,3.50
2018-10-18T12:46:11.089Z,2.80
2018-10-18T12:48:14.539Z,3.33
2018-10-18T12:50:18.281Z,2.67
2018-10-18T12:52:21.993Z,2.77
2018-10-18T12:54:25.276Z,2.80
2018-10-18T12:56:28.585Z,2.63
2018-10-18T12:58:32.369Z,1.77
2018-10-18T13:00:35.568Z,3.27
2018-10-18T13:02:38.835Z,2.83
2018-10-18T13:04:42.430Z,2.63
2018-10-18T13:06:45.993Z,2.60
2018-10-18T13:08:49.185Z,2.77
2018-10-18T13:10:52.400Z,2.30
2018-10-18T13:12:55.820Z,2.37
2018-10-18T13:14:59.040Z,2.60
2018-10-18T13:17:02.412Z,2.67
2018-10-18T13:19:05.764Z,1.90
2018-10-18T13:21:09.037Z,2.03
2018-10-18T13:23:12.330Z,1.83
2018-10-18T13:25:15.548Z,1.70
2018-10-18T13:27:18.917Z,2.63
2018-10-18T13:29:22.150Z,1.53
2018-10-18T13:31:25.612Z,2.10
2018-10-18T13:33:28.953Z,2.33
2018-10-18T13:35:32.199Z,3.00
2018-10-18T13:37:35.701Z,2.37
2018-10-18T13:39:39.278Z,1.90
2018-10-18T13:41:42.608Z,1.73
2018-10-18T13:43:45.996Z,2.20
2018-10-18T13:45:49.196Z,1.67
2018-10-18T13:47:52.745Z,2.23
2018-10-18T13:49:56.203Z,2.50
2018-10-18T13:51:59.484Z,2.83
2018-10-18T13:54:03.107Z,1.80
2018-10-18T13:56:06.647Z,1.90
2018-10-18T13:58:10.008Z,1.60
2018-10-18T14:00:20.094Z,2.20
2018-10-18T14:02:23.386Z,2.17
2018-10-18T14:04:26.622Z,1.60
2018-10-18T14:06:30.084Z,1.63
2018-10-18T14:08:33.348Z,2.00
2018-10-18T14:10:36.731Z,2.10
2018-10-18T14:12:40.245Z,1.70
2018-10-18T14:14:43.473Z,2.30
2018-10-18T14:16:46.675Z,1.90
2018-10-18T14:18:49.894Z,1.57
2018-10-18T14:20:53.905Z,2.00
2018-10-18T14:22:57.301Z,1.50
2018-10-18T14:25:00.758Z,2.30
2018-10-18T14:27:03.992Z,1.90
2018-10-18T14:29:07.439Z,1.53
2018-10-18T14:31:10.846Z,1.70
2018-10-18T14:33:14.076Z,1.80
2018-10-18T14:35:17.935Z,2.27
2018-10-18T14:37:21.382Z,1.60
2018-10-18T14:39:24.704Z,2.03
2018-10-18T14:41:27.884Z,1.70
2018-10-18T14:43:31.107Z,2.23
2018-10-18T14:45:34.412Z,1.53
2018-10-18T14:47:38.113Z,2.03
2018-10-18T14:49:41.506Z,1.90
2018-10-18T14:51:44.735Z,1.60
2018-10-18T14:53:48.149Z,1.63
2018-10-18T14:55:51.857Z,1.50
2018-10-18T14:57:55.495Z,1.40
2018-10-18T14:59:59.061Z,1.70
2018-10-18T15:02:02.629Z,1.63
2018-10-18T15:04:06.616Z,1.83
2018-10-18T15:06:09.821Z,1.70
2018-10-18T15:08:13.362Z,1.90
2018-10-18T15:10:17.255Z,1.77
2018-10-18T15:12:20.831Z,1.40
2018-10-18T15:14:24.060Z,1.40
2018-10-18T15:16:27.662Z,1.63
2018-10-18T15:18:31.325Z,1.47
2018-10-18T15:20:34.710Z,1.47
2018-10-18T15:22:38.908Z,1.53
2018-10-18T15:24:42.128Z,1.23
2018-10-18T15:26:45.518Z,1.00
2018-10-18T15:28:48.729Z,1.40
2018-10-18T15:30:51.944Z,1.50
2018-10-18T15:33:01.757Z,1.50
2018-10-18T15:35:06.084Z,1.63
2018-10-18T15:37:09.788Z,1.50
2018-10-18T15:39:13.259Z,1.53
2018-10-18T15:41:16.745Z,1.60
2018-10-18T15:43:20.064Z,1.30
2018-10-18T15:45:23.348Z,1.20
2018-10-18T15:47:26.569Z,1.50
2018-10-18T15:49:29.968Z,1.20
2018-10-18T15:51:33.540Z,1.30
2018-10-18T15:53:36.805Z,1.43
2018-10-18T15:55:40.207Z,1.47
2018-10-18T15:57:43.419Z,1.30
2018-10-18T15:59:46.604Z,1.30
2018-10-18T16:01:50.130Z,1.70
2018-10-18T16:03:53.495Z,1.30
2018-10-18T16:05:56.999Z,1.83
2018-10-18T16:08:00.181Z,1.30
2018-10-18T16:10:04.108Z,1.37
2018-10-18T16:12:07.371Z,1.40
2018-10-18T16:14:11.089Z,2.00
2018-10-18T16:16:15.051Z,1.50
2018-10-18T16:18:18.272Z,1.53
2018-10-18T16:20:21.468Z,2.00
2018-10-18T16:22:25.288Z,1.50
2018-10-18T16:24:28.694Z,1.53
2018-10-18T16:26:32.667Z,1.60
2018-10-18T16:28:36.126Z,1.40
2018-10-18T16:30:39.307Z,1.77
2018-10-18T16:32:42.526Z,1.67
2018-10-18T16:34:46.225Z,1.67
2018-10-18T16:36:49.402Z,1.87
2018-10-18T16:38:52.939Z,1.70
2018-10-18T16:40:56.212Z,1.43
2018-10-18T16:42:59.565Z,2.00
2018-10-18T16:45:02.778Z,1.77
2018-10-18T16:47:06.554Z,1.97
2018-10-18T16:49:09.752Z,1.70
2018-10-18T16:51:12.919Z,1.60
2018-10-18T16:53:16.451Z,1.50
2018-10-18T16:55:19.643Z,1.87
2018-10-18T16:57:23.188Z,1.90
2018-10-18T16:59:26.393Z,1.60
2018-10-18T17:01:29.617Z,1.57
2018-10-18T17:03:32.921Z,1.70
2018-10-18T17:05:36.814Z,1.67
2018-10-18T17:07:40.003Z,1.40
2018-10-18T17:09:43.465Z,1.60
2018-10-18T17:11:48.240Z,2.10
2018-10-18T17:13:52.210Z,1.80
2018-10-18T17:15:56.514Z,1.70
2018-10-18T17:18:00.533Z,1.83
2018-10-18T17:20:03.993Z,1.50
2018-10-18T17:22:07.341Z,1.60
2018-10-18T17:24:10.643Z,1.80
2018-10-18T17:26:14.097Z,1.93
2018-10-18T17:28:17.474Z,1.90
2018-10-18T17:30:20.697Z,2.00
2018-10-18T17:32:23.991Z,2.27
2018-10-18T17:34:27.645Z,2.40
2018-10-18T17:36:31.046Z,1.90
2018-10-18T17:38:34.320Z,2.50
2018-10-18T17:40:37.885Z,2.57
2018-10-18T17:42:41.271Z,2.03
2018-10-18T17:44:44.692Z,2.97
2018-10-18T17:46:48.076Z,2.50
2018-10-18T17:48:51.844Z,2.33
2018-10-18T17:50:55.095Z,2.13
2018-10-18T17:52:58.683Z,2.57
2018-10-18T17:55:02.102Z,2.60
2018-10-18T17:57:05.485Z,2.60
2018-10-18T17:59:08.901Z,3.17
2018-10-18T18:01:12.208Z,2.43
2018-10-18T18:03:15.416Z,2.50
2018-10-18T18:05:18.631Z,2.57
2018-10-18T18:07:22.497Z,2.33
2018-10-18T18:09:25.893Z,2.77
2018-10-18T18:11:29.717Z,2.90
2018-10-18T18:13:32.945Z,2.90
2018-10-18T18:15:36.164Z,2.57
2018-10-18T18:17:39.984Z,2.70
2018-10-18T18:19:43.753Z,2.70
2018-10-18T18:21:47.216Z,3.00
2018-10-18T18:23:50.402Z,3.00
2018-10-18T18:25:53.596Z,3.17
2018-10-18T18:27:57.157Z,3.00
2018-10-18T18:30:00.357Z,3.17
2018-10-18T18:32:03.568Z,2.97
2018-10-18T18:34:06.952Z,3.00
2018-10-18T18:36:10.161Z,2.90
2018-10-18T18:38:13.422Z,2.63
2018-10-18T18:40:16.644Z,3.07
2018-10-18T18:42:19.828Z,2.90
2018-10-18T18:44:23.128Z,3.60
2018-10-18T18:46:26.303Z,2.70
2018-10-18T18:48:29.683Z,3.57
2018-10-18T18:50:33.050Z,3.17
2018-10-18T18:52:36.266Z,3.30
2018-10-18T18:54:39.668Z,2.77
2018-10-18T18:56:42.866Z,3.00
2018-10-18T18:58:46.272Z,2.77
2018-10-18T19:00:49.554Z,3.00
2018-10-18T19:02:53.067Z,2.67
2018-10-18T19:04:56.500Z,3.60
2018-10-18T19:06:59.675Z,3.37
2018-10-18T19:09:02.964Z,3.40
2018-10-18T19:11:07.020Z,3.77
2018-10-18T19:13:10.551Z,2.87
2018-10-18T19:15:14.021Z,3.30
2018-10-18T19:17:17.704Z,3.13
2018-10-18T19:19:21.075Z,3.03
2018-10-18T19:21:24.292Z,3.17
2018-10-18T19:23:27.599Z,2.90
2018-10-18T19:25:30.792Z,3.30
2018-10-18T19:27:33.982Z,3.40
2018-10-18T19:29:37.453Z,4.10
2018-10-18T19:31:40.676Z,4.07
2018-10-18T19:33:44.716Z,3.70
2018-10-18T19:35:48.260Z,2.90
2018-10-18T19:37:51.781Z,3.07
2018-10-18T19:39:54.968Z,4.03
2018-10-18T19:41:58.185Z,3.50
2018-10-18T19:44:01.438Z,3.93
2018-10-18T19:46:06.093Z,3.50
2018-10-18T19:48:09.744Z,3.30
2018-10-18T19:50:13.022Z,3.00
2018-10-18T19:52:16.669Z,3.13
2018-10-18T19:54:20.011Z,3.20
2018-10-18T19:56:23.864Z,3.20
2018-10-18T19:58:27.321Z,2.60
2018-10-18T20:00:30.675Z,3.17
2018-10-18T20:02:33.899Z,4.00
2018-10-18T20:04:37.138Z,2.90
2018-10-18T20:06:40.387Z,3.07
2018-10-18T20:08:43.656Z,2.80
2018-10-18T20:10:46.896Z,2.87
2018-10-18T20:12:50.124Z,3.13
2018-10-18T20:14:53.515Z,2.93
2018-10-18T20:16:57.597Z,3.67
2018-10-18T20:19:00.785Z,3.20
2018-10-18T20:21:04.260Z,3.23
2018-10-18T20:23:07.673Z,2.77
2018-10-18T20:25:11.026Z,2.93
2018-10-18T20:27:15.479Z,3.30
2018-10-18T20:29:19.020Z,3.47
2018-10-18T20:31:22.873Z,2.73
2018-10-18T20:33:26.163Z,3.20
2018-10-18T20:35:29.478Z,2.70
2018-10-18T20:37:32.845Z,2.60
2018-10-18T20:39:36.167Z,2.73
2018-10-18T20:41:39.506Z,2.40
2018-10-18T20:43:42.746Z,2.40
2018-10-18T20:45:45.942Z,2.47
2018-10-18T20:47:49.774Z,2.23
2018-10-18T20:49:53.370Z,2.27
2018-10-18T20:51:56.577Z,2.47
2018-10-18T20:53:59.804Z,2.57
2018-10-18T20:56:03.529Z,3.17
2018-10-18T20:58:06.944Z,2.83
2018-10-18T21:00:10.943Z,2.13
2018-10-18T21:02:14.513Z,2.80
2018-10-18T21:04:17.776Z,2.50
2018-10-18T21:06:21.412Z,2.53
2018-10-18T21:08:24.728Z,2.40
2018-10-18T21:10:27.985Z,2.80
2018-10-18T21:12:31.199Z,2.93
2018-10-18T21:14:34.406Z,2.57
2018-10-18T21:16:38.049Z,2.73
2018-10-18T21:18:41.464Z,2.20
2018-10-18T21:20:44.688Z,2.50
2018-10-18T21:22:48.228Z,3.30
2018-10-18T21:24:51.392Z,1.83
2018-10-18T21:26:54.623Z,2.07
2018-10-18T21:28:58.065Z,2.60
2018-10-18T21:31:01.475Z,1.90
2018-10-18T21:33:11.532Z,2.00
2018-10-18T21:35:15.090Z,1.90
2018-10-18T21:37:18.408Z,2.00
2018-10-18T21:39:28.811Z,3.20
2018-10-18T21:41:32.024Z,2.30
2018-10-18T21:43:35.212Z,2.07
2018-10-18T21:45:38.850Z,2.07
2018-10-18T21:47:42.137Z,1.80
2018-10-18T21:49:45.320Z,2.03
2018-10-18T21:51:48.536Z,2.90
2018-10-18T21:53:51.940Z,3.63
2018-10-18T21:55:55.388Z,2.30
2018-10-18T21:57:58.628Z,2.20
2018-10-18T22:00:02.319Z,2.90
2018-10-18T22:02:06.021Z,2.27
2018-10-18T22:04:09.210Z,2.50
2018-10-18T22:06:12.421Z,2.73
2018-10-18T22:08:15.964Z,3.47
2018-10-18T22:10:19.140Z,2.43
2018-10-18T22:12:22.379Z,2.70
2018-10-18T22:14:26.057Z,2.90
2018-10-18T22:16:29.334Z,2.80
2018-10-18T22:18:33.132Z,2.70
2018-10-18T22:20:36.656Z,2.60
2018-10-18T22:22:39.892Z,3.10
2018-10-18T22:24:43.406Z,2.77
2018-10-18T22:26:46.578Z,3.17
2018-10-18T22:28:49.969Z,3.00
2018-10-18T22:30:53.905Z,3.27
2018-10-18T22:32:57.206Z,3.30
2018-10-18T22:35:00.630Z,3.10
2018-10-18T22:37:04.155Z,2.97
2018-10-18T22:39:08.680Z,2.50
2018-10-18T22:41:12.612Z,2.70
2018-10-18T22:43:15.836Z,2.70
2018-10-18T22:45:19.364Z,3.17
2018-10-18T22:47:22.546Z,4.17
2018-10-18T22:49:25.861Z,2.90
2018-10-18T22:51:29.103Z,3.07
2018-10-18T22:53:32.627Z,3.10
2018-10-18T22:55:35.842Z,3.30
2018-10-18T22:57:39.084Z,3.20
2018-10-18T22:59:42.295Z,2.97
2018-10-18T23:01:45.516Z,2.80
2018-10-18T23:03:49.147Z,3.20
2018-10-18T23:05:52.667Z,2.67
2018-10-18T23:07:56.073Z,2.90
2018-10-18T23:09:59.704Z,3.33
2018-10-18T23:12:02.934Z,3.10
2018-10-18T23:14:07.209Z,2.80
2018-10-18T23:16:10.579Z,4.03
2018-10-18T23:18:14.100Z,3.27
2018-10-18T23:20:17.308Z,2.90
2018-10-18T23:22:20.865Z,3.60
2018-10-18T23:24:24.036Z,3.60
2018-10-18T23:26:27.218Z,3.57
2018-10-18T23:28:30.728Z,5.63
2018-10-18T23:30:33.908Z,3.33
2018-10-18T23:32:37.093Z,4.40
2018-10-18T23:34:40.484Z,3.07
2018-10-18T23:36:43.688Z,3.93
2018-10-18T23:38:47.072Z,2.93
2018-10-18T23:40:50.476Z,3.57
2018-10-18T23:42:54.343Z,3.33
2018-10-18T23:44:57.521Z,3.47
2018-10-18T23:47:00.902Z,3.33
2018-10-18T23:49:04.313Z,3.40
2018-10-18T23:51:07.564Z,3.10
2018-10-18T23:53:10.968Z,3.30
2018-10-18T23:55:14.382Z,3.47
2018-10-18T23:57:17.727Z,3.40
2018-10-18T23:59:21.424Z,3.17
